sensor_id;sensor_type;location;lat;lon;timestamp;temperature;humidity
6102;DHT22;3081;50.584;7.032;2023-07-16T00:01:14;20.00;99.90
6102;DHT22;3081;50.584;7.032;2023-07-16T00:03:40;19.90;99.90
6102;DHT22;3081;50.584;7.032;2023-07-16T00:06:07;19.90;99.90
6102;DHT22;3081;50.584;7.032;2023-07-16T00:08:34;19.80;99.90
6102;DHT22;3081;50.584;7.032;2023-07-16T00:11:04;19.80;99.90
6102;DHT22;3081;50.584;7.032;2023-07-16T00:13:31;19.80;99.90
6102;DHT22;3081;50.584;7.032;2023-07-16T00:15:58;19.70;99.90
6102;DHT22;3081;50.584;7.032;2023-07-16T00:18:25;19.60;99.90
6102;DHT22;3081;50.584;7.032;2023-07-16T00:20:52;19.60;99.90
6102;DHT22;3081;50.584;7.032;2023-07-16T00:23:19;19.60;99.90
6102;DHT22;3081;50.584;7.032;2023-07-16T00:25:46;19.60;99.90
6102;DHT22;3081;50.584;7.032;2023-07-16T00:28:14;19.60;99.90
6102;DHT22;3081;50.584;7.032;2023-07-16T00:30:41;19.60;99.90
6102;DHT22;3081;50.584;7.032;2023-07-16T00:33:08;19.60;99.90
6102;DHT22;3081;50.584;7.032;2023-07-16T00:35:34;19.60;99.90
6102;DHT22;3081;50.584;7.032;2023-07-16T00:38:01;19.60;99.90
6102;DHT22;3081;50.584;7.032;2023-07-16T00:40:28;19.50;99.90
6102;DHT22;3081;50.584;7.032;2023-07-16T00:42:55;19.50;99.90
6102;DHT22;3081;50.584;7.032;2023-07-16T00:45:23;19.50;99.90
6102;DHT22;3081;50.584;7.032;2023-07-16T00:47:50;19.50;99.90
6102;DHT22;3081;50.584;7.032;2023-07-16T00:50:18;19.40;99.90
6102;DHT22;3081;50.584;7.032;2023-07-16T00:52:45;19.40;99.90
6102;DHT22;3081;50.584;7.032;2023-07-16T00:55:12;19.40;99.90
6102;DHT22;3081;50.584;7.032;2023-07-16T00:57:39;19.30;99.90
6102;DHT22;3081;50.584;7.032;2023-07-16T01:00:07;19.30;99.90
6102;DHT22;3081;50.584;7.032;2023-07-16T01:02:36;19.30;99.90
6102;DHT22;3081;50.584;7.032;2023-07-16T01:05:04;19.20;99.90
6102;DHT22;3081;50.584;7.032;2023-07-16T01:07:31;19.20;99.90
6102;DHT22;3081;50.584;7.032;2023-07-16T01:09:58;19.20;99.90
6102;DHT22;3081;50.584;7.032;2023-07-16T01:12:27;19.10;99.90
6102;DHT22;3081;50.584;7.032;2023-07-16T01:14:54;19.10;99.90
6102;DHT22;3081;50.584;7.032;2023-07-16T01:17:22;19.10;99.90
6102;DHT22;3081;50.584;7.032;2023-07-16T01:19:51;19.10;99.90
6102;DHT22;3081;50.584;7.032;2023-07-16T01:22:34;19.00;99.90
6102;DHT22;3081;50.584;7.032;2023-07-16T01:25:13;19.00;99.90
6102;DHT22;3081;50.584;7.032;2023-07-16T01:30:55;19.00;99.90
6102;DHT22;3081;50.584;7.032;2023-07-16T01:33:26;18.90;99.90
6102;DHT22;3081;50.584;7.032;2023-07-16T01:35:53;18.90;99.90
6102;DHT22;3081;50.584;7.032;2023-07-16T01:38:21;18.90;99.90
6102;DHT22;3081;50.584;7.032;2023-07-16T01:40:48;18.90;99.90
6102;DHT22;3081;50.584;7.032;2023-07-16T01:43:15;18.80;99.90
6102;DHT22;3081;50.584;7.032;2023-07-16T01:45:42;18.80;99.90
6102;DHT22;3081;50.584;7.032;2023-07-16T01:48:17;18.80;99.90
6102;DHT22;3081;50.584;7.032;2023-07-16T01:50:47;18.70;99.90
6102;DHT22;3081;50.584;7.032;2023-07-16T01:53:14;18.70;99.90
6102;DHT22;3081;50.584;7.032;2023-07-16T01:55:40;18.70;99.90
6102;DHT22;3081;50.584;7.032;2023-07-16T01:58:07;18.70;99.90
6102;DHT22;3081;50.584;7.032;2023-07-16T02:00:35;18.70;99.90
6102;DHT22;3081;50.584;7.032;2023-07-16T02:03:02;18.70;99.90
6102;DHT22;3081;50.584;7.032;2023-07-16T02:05:31;18.70;99.90
6102;DHT22;3081;50.584;7.032;2023-07-16T02:07:58;18.70;99.90
6102;DHT22;3081;50.584;7.032;2023-07-16T02:10:24;18.60;99.90
6102;DHT22;3081;50.584;7.032;2023-07-16T02:12:51;18.60;99.90
6102;DHT22;3081;50.584;7.032;2023-07-16T02:15:18;18.60;99.90
6102;DHT22;3081;50.584;7.032;2023-07-16T02:17:45;18.60;99.90
6102;DHT22;3081;50.584;7.032;2023-07-16T02:20:12;18.50;99.90
6102;DHT22;3081;50.584;7.032;2023-07-16T02:22:40;18.50;99.90
6102;DHT22;3081;50.584;7.032;2023-07-16T02:25:07;18.50;99.90
6102;DHT22;3081;50.584;7.032;2023-07-16T02:27:34;18.40;99.90
6102;DHT22;3081;50.584;7.032;2023-07-16T02:30:01;18.40;99.90
6102;DHT22;3081;50.584;7.032;2023-07-16T02:32:28;18.40;99.90
6102;DHT22;3081;50.584;7.032;2023-07-16T02:34:55;18.40;99.90
6102;DHT22;3081;50.584;7.032;2023-07-16T02:37:22;18.30;99.90
6102;DHT22;3081;50.584;7.032;2023-07-16T02:39:50;18.30;99.90
6102;DHT22;3081;50.584;7.032;2023-07-16T02:42:17;18.30;99.90
6102;DHT22;3081;50.584;7.032;2023-07-16T02:44:44;18.20;99.90
6102;DHT22;3081;50.584;7.032;2023-07-16T02:47:11;18.20;99.90
6102;DHT22;3081;50.584;7.032;2023-07-16T02:49:38;18.20;99.90
6102;DHT22;3081;50.584;7.032;2023-07-16T02:52:06;18.20;99.90
6102;DHT22;3081;50.584;7.032;2023-07-16T02:54:34;18.20;99.90
6102;DHT22;3081;50.584;7.032;2023-07-16T02:57:03;18.20;99.90
6102;DHT22;3081;50.584;7.032;2023-07-16T02:59:30;18.10;99.90
6102;DHT22;3081;50.584;7.032;2023-07-16T03:01:57;18.10;99.90
6102;DHT22;3081;50.584;7.032;2023-07-16T03:04:24;18.10;99.90
6102;DHT22;3081;50.584;7.032;2023-07-16T03:06:51;18.00;99.90
6102;DHT22;3081;50.584;7.032;2023-07-16T03:09:18;18.00;99.90
6102;DHT22;3081;50.584;7.032;2023-07-16T03:11:45;18.00;99.90
6102;DHT22;3081;50.584;7.032;2023-07-16T03:14:13;17.90;99.90
6102;DHT22;3081;50.584;7.032;2023-07-16T03:16:40;17.90;99.90
6102;DHT22;3081;50.584;7.032;2023-07-16T03:19:07;17.90;99.90
6102;DHT22;3081;50.584;7.032;2023-07-16T03:21:33;17.90;99.90
6102;DHT22;3081;50.584;7.032;2023-07-16T03:24:00;17.80;99.90
6102;DHT22;3081;50.584;7.032;2023-07-16T03:26:27;17.90;99.90
6102;DHT22;3081;50.584;7.032;2023-07-16T03:28:54;17.80;99.90
6102;DHT22;3081;50.584;7.032;2023-07-16T03:31:22;17.80;99.90
6102;DHT22;3081;50.584;7.032;2023-07-16T03:33:49;17.80;99.90
6102;DHT22;3081;50.584;7.032;2023-07-16T03:36:17;17.80;99.90
6102;DHT22;3081;50.584;7.032;2023-07-16T03:38:44;17.80;99.90
6102;DHT22;3081;50.584;7.032;2023-07-16T03:41:11;17.80;99.90
6102;DHT22;3081;50.584;7.032;2023-07-16T03:43:38;17.70;99.90
6102;DHT22;3081;50.584;7.032;2023-07-16T03:46:05;17.70;99.90
6102;DHT22;3081;50.584;7.032;2023-07-16T03:48:35;17.70;99.90
6102;DHT22;3081;50.584;7.032;2023-07-16T03:51:02;17.70;99.90
6102;DHT22;3081;50.584;7.032;2023-07-16T03:53:29;17.60;99.90
6102;DHT22;3081;50.584;7.032;2023-07-16T03:55:56;17.60;99.90
6102;DHT22;3081;50.584;7.032;2023-07-16T03:58:23;17.60;99.90
6102;DHT22;3081;50.584;7.032;2023-07-16T04:00:49;17.60;99.90
6102;DHT22;3081;50.584;7.032;2023-07-16T04:03:17;17.60;99.90
6102;DHT22;3081;50.584;7.032;2023-07-16T04:05:45;17.50;99.90
6102;DHT22;3081;50.584;7.032;2023-07-16T04:08:12;17.50;99.90
6102;DHT22;3081;50.584;7.032;2023-07-16T04:10:39;17.50;99.90
6102;DHT22;3081;50.584;7.032;2023-07-16T04:13:06;17.50;99.90
6102;DHT22;3081;50.584;7.032;2023-07-16T04:15:33;17.40;99.90
6102;DHT22;3081;50.584;7.032;2023-07-16T04:18:00;17.40;99.90
6102;DHT22;3081;50.584;7.032;2023-07-16T04:20:27;17.50;99.90
6102;DHT22;3081;50.584;7.032;2023-07-16T04:22:55;17.50;99.90
6102;DHT22;3081;50.584;7.032;2023-07-16T04:25:22;17.50;99.90
6102;DHT22;3081;50.584;7.032;2023-07-16T04:27:49;17.50;99.90
6102;DHT22;3081;50.584;7.032;2023-07-16T04:30:16;17.50;99.90
6102;DHT22;3081;50.584;7.032;2023-07-16T04:32:43;17.60;99.90
6102;DHT22;3081;50.584;7.032;2023-07-16T04:35:10;17.60;99.90
6102;DHT22;3081;50.584;7.032;2023-07-16T04:37:37;17.50;99.90
6102;DHT22;3081;50.584;7.032;2023-07-16T04:40:06;17.50;99.90
6102;DHT22;3081;50.584;7.032;2023-07-16T04:42:34;17.50;99.90
6102;DHT22;3081;50.584;7.032;2023-07-16T04:45:01;17.60;99.90
6102;DHT22;3081;50.584;7.032;2023-07-16T04:47:28;17.60;99.90
6102;DHT22;3081;50.584;7.032;2023-07-16T04:49:55;17.60;99.90
6102;DHT22;3081;50.584;7.032;2023-07-16T04:52:22;17.60;99.90
6102;DHT22;3081;50.584;7.032;2023-07-16T04:54:49;17.60;99.90
6102;DHT22;3081;50.584;7.032;2023-07-16T04:57:17;17.70;99.90
6102;DHT22;3081;50.584;7.032;2023-07-16T04:59:44;17.80;99.90
6102;DHT22;3081;50.584;7.032;2023-07-16T05:02:11;17.90;99.90
6102;DHT22;3081;50.584;7.032;2023-07-16T05:04:37;17.90;99.90
6102;DHT22;3081;50.584;7.032;2023-07-16T05:07:04;18.00;99.90
6102;DHT22;3081;50.584;7.032;2023-07-16T05:09:31;18.00;99.90
6102;DHT22;3081;50.584;7.032;2023-07-16T05:11:58;18.10;99.90
6102;DHT22;3081;50.584;7.032;2023-07-16T05:14:28;18.00;99.90
6102;DHT22;3081;50.584;7.032;2023-07-16T05:16:55;18.00;99.90
6102;DHT22;3081;50.584;7.032;2023-07-16T05:19:23;18.00;99.90
6102;DHT22;3081;50.584;7.032;2023-07-16T05:21:50;18.10;99.90
6102;DHT22;3081;50.584;7.032;2023-07-16T05:24:16;18.10;99.90
6102;DHT22;3081;50.584;7.032;2023-07-16T05:26:43;18.20;99.90
6102;DHT22;3081;50.584;7.032;2023-07-16T05:29:10;18.20;99.90
6102;DHT22;3081;50.584;7.032;2023-07-16T05:31:38;18.20;99.90
6102;DHT22;3081;50.584;7.032;2023-07-16T05:34:05;18.30;99.90
6102;DHT22;3081;50.584;7.032;2023-07-16T05:36:33;18.30;99.90
6102;DHT22;3081;50.584;7.032;2023-07-16T05:39:00;18.30;99.90
6102;DHT22;3081;50.584;7.032;2023-07-16T05:41:26;18.30;99.90
6102;DHT22;3081;50.584;7.032;2023-07-16T05:43:53;18.30;99.90
6102;DHT22;3081;50.584;7.032;2023-07-16T05:46:20;18.30;99.90
6102;DHT22;3081;50.584;7.032;2023-07-16T05:48:48;18.30;99.90
6102;DHT22;3081;50.584;7.032;2023-07-16T05:51:15;18.40;99.90
6102;DHT22;3081;50.584;7.032;2023-07-16T05:53:42;18.40;99.90
6102;DHT22;3081;50.584;7.032;2023-07-16T05:56:09;18.50;99.90
6102;DHT22;3081;50.584;7.032;2023-07-16T05:58:36;18.50;99.90
6102;DHT22;3081;50.584;7.032;2023-07-16T06:01:03;18.50;99.90
6102;DHT22;3081;50.584;7.032;2023-07-16T06:03:30;18.60;99.90
6102;DHT22;3081;50.584;7.032;2023-07-16T06:05:58;18.60;99.90
6102;DHT22;3081;50.584;7.032;2023-07-16T06:08:25;18.70;99.90
6102;DHT22;3081;50.584;7.032;2023-07-16T06:10:52;18.70;99.90
6102;DHT22;3081;50.584;7.032;2023-07-16T06:13:19;18.60;99.90
6102;DHT22;3081;50.584;7.032;2023-07-16T06:15:47;18.60;99.90
6102;DHT22;3081;50.584;7.032;2023-07-16T06:18:14;18.50;99.90
6102;DHT22;3081;50.584;7.032;2023-07-16T06:20:43;18.60;99.90
6102;DHT22;3081;50.584;7.032;2023-07-16T06:23:11;18.60;99.90
6102;DHT22;3081;50.584;7.032;2023-07-16T06:25:38;18.70;99.90
6102;DHT22;3081;50.584;7.032;2023-07-16T06:28:10;18.80;99.90
6102;DHT22;3081;50.584;7.032;2023-07-16T06:30:37;18.80;99.90
6102;DHT22;3081;50.584;7.032;2023-07-16T06:33:04;18.90;99.90
6102;DHT22;3081;50.584;7.032;2023-07-16T06:35:31;19.00;99.90
6102;DHT22;3081;50.584;7.032;2023-07-16T06:37:58;19.20;99.90
6102;DHT22;3081;50.584;7.032;2023-07-16T06:40:28;19.20;99.90
6102;DHT22;3081;50.584;7.032;2023-07-16T06:42:55;19.30;99.90
6102;DHT22;3081;50.584;7.032;2023-07-16T06:45:22;19.30;99.90
6102;DHT22;3081;50.584;7.032;2023-07-16T06:47:49;19.30;99.90
6102;DHT22;3081;50.584;7.032;2023-07-16T06:50:16;19.30;99.90
6102;DHT22;3081;50.584;7.032;2023-07-16T06:52:43;19.40;99.90
6102;DHT22;3081;50.584;7.032;2023-07-16T06:55:10;19.40;99.90
6102;DHT22;3081;50.584;7.032;2023-07-16T06:57:38;19.30;99.90
6102;DHT22;3081;50.584;7.032;2023-07-16T07:00:06;19.20;99.90
6102;DHT22;3081;50.584;7.032;2023-07-16T07:02:36;19.40;99.90
6102;DHT22;3081;50.584;7.032;2023-07-16T07:05:03;19.40;99.90
6102;DHT22;3081;50.584;7.032;2023-07-16T07:07:30;19.40;99.90
6102;DHT22;3081;50.584;7.032;2023-07-16T07:09:57;19.30;99.90
6102;DHT22;3081;50.584;7.032;2023-07-16T07:12:24;19.40;99.90
6102;DHT22;3081;50.584;7.032;2023-07-16T07:14:52;19.60;99.90
6102;DHT22;3081;50.584;7.032;2023-07-16T07:17:19;19.70;99.90
6102;DHT22;3081;50.584;7.032;2023-07-16T07:19:46;19.80;99.90
6102;DHT22;3081;50.584;7.032;2023-07-16T07:22:13;19.80;99.90
6102;DHT22;3081;50.584;7.032;2023-07-16T07:24:39;19.90;99.90
6102;DHT22;3081;50.584;7.032;2023-07-16T07:27:06;19.90;99.90
6102;DHT22;3081;50.584;7.032;2023-07-16T07:29:33;20.00;99.90
6102;DHT22;3081;50.584;7.032;2023-07-16T07:32:02;20.00;99.90
6102;DHT22;3081;50.584;7.032;2023-07-16T07:34:28;20.00;99.90
6102;DHT22;3081;50.584;7.032;2023-07-16T07:36:55;20.20;99.90
6102;DHT22;3081;50.584;7.032;2023-07-16T07:39:22;20.30;99.90
6102;DHT22;3081;50.584;7.032;2023-07-16T07:41:49;20.30;99.90
6102;DHT22;3081;50.584;7.032;2023-07-16T07:44:17;20.50;99.90
6102;DHT22;3081;50.584;7.032;2023-07-16T07:46:44;20.50;99.90
6102;DHT22;3081;50.584;7.032;2023-07-16T07:49:13;20.50;99.90
6102;DHT22;3081;50.584;7.032;2023-07-16T07:51:40;20.40;99.90
6102;DHT22;3081;50.584;7.032;2023-07-16T07:54:07;20.40;99.90
6102;DHT22;3081;50.584;7.032;2023-07-16T07:56:34;20.40;99.90
6102;DHT22;3081;50.584;7.032;2023-07-16T07:59:01;20.30;99.90
6102;DHT22;3081;50.584;7.032;2023-07-16T08:01:29;20.40;99.90
6102;DHT22;3081;50.584;7.032;2023-07-16T08:03:56;20.40;99.90
6102;DHT22;3081;50.584;7.032;2023-07-16T08:06:25;20.30;99.90
6102;DHT22;3081;50.584;7.032;2023-07-16T08:08:52;20.40;99.90
6102;DHT22;3081;50.584;7.032;2023-07-16T08:11:20;20.60;99.90
6102;DHT22;3081;50.584;7.032;2023-07-16T08:13:47;20.80;99.90
6102;DHT22;3081;50.584;7.032;2023-07-16T08:16:14;20.90;99.90
6102;DHT22;3081;50.584;7.032;2023-07-16T08:18:41;21.00;99.90
6102;DHT22;3081;50.584;7.032;2023-07-16T08:21:08;21.00;99.90
6102;DHT22;3081;50.584;7.032;2023-07-16T08:23:36;21.20;99.90
6102;DHT22;3081;50.584;7.032;2023-07-16T08:26:03;21.30;99.90
6102;DHT22;3081;50.584;7.032;2023-07-16T08:28:30;21.40;99.90
6102;DHT22;3081;50.584;7.032;2023-07-16T08:30:57;21.40;99.90
6102;DHT22;3081;50.584;7.032;2023-07-16T08:33:24;21.40;99.90
6102;DHT22;3081;50.584;7.032;2023-07-16T08:35:51;21.40;99.90
6102;DHT22;3081;50.584;7.032;2023-07-16T08:38:18;21.30;99.90
6102;DHT22;3081;50.584;7.032;2023-07-16T08:40:47;21.30;99.80
6102;DHT22;3081;50.584;7.032;2023-07-16T08:43:16;21.20;99.90
6102;DHT22;3081;50.584;7.032;2023-07-16T08:45:44;21.40;99.60
6102;DHT22;3081;50.584;7.032;2023-07-16T08:48:13;21.40;99.80
6102;DHT22;3081;50.584;7.032;2023-07-16T08:50:42;21.50;99.90
6102;DHT22;3081;50.584;7.032;2023-07-16T08:53:09;21.60;99.60
6102;DHT22;3081;50.584;7.032;2023-07-16T08:55:35;21.50;99.00
6102;DHT22;3081;50.584;7.032;2023-07-16T08:58:06;21.40;98.60
6102;DHT22;3081;50.584;7.032;2023-07-16T09:00:33;21.60;99.10
6102;DHT22;3081;50.584;7.032;2023-07-16T09:03:01;21.80;98.70
6102;DHT22;3081;50.584;7.032;2023-07-16T09:05:29;21.90;98.30
6102;DHT22;3081;50.584;7.032;2023-07-16T09:07:56;21.90;98.20
6102;DHT22;3081;50.584;7.032;2023-07-16T09:10:23;22.00;98.20
6102;DHT22;3081;50.584;7.032;2023-07-16T09:12:50;22.10;97.70
6102;DHT22;3081;50.584;7.032;2023-07-16T09:15:18;22.10;97.80
6102;DHT22;3081;50.584;7.032;2023-07-16T09:17:47;22.10;97.10
6102;DHT22;3081;50.584;7.032;2023-07-16T09:20:15;22.10;97.40
6102;DHT22;3081;50.584;7.032;2023-07-16T09:22:42;22.10;97.30
6102;DHT22;3081;50.584;7.032;2023-07-16T09:25:09;22.20;98.00
6102;DHT22;3081;50.584;7.032;2023-07-16T09:27:36;22.50;97.80
6102;DHT22;3081;50.584;7.032;2023-07-16T09:30:04;22.70;97.50
6102;DHT22;3081;50.584;7.032;2023-07-16T09:32:36;22.90;96.10
6102;DHT22;3081;50.584;7.032;2023-07-16T09:35:07;22.70;95.60
6102;DHT22;3081;50.584;7.032;2023-07-16T09:37:35;22.70;95.60
6102;DHT22;3081;50.584;7.032;2023-07-16T09:40:04;22.90;95.20
6102;DHT22;3081;50.584;7.032;2023-07-16T09:42:37;23.30;94.90
6102;DHT22;3081;50.584;7.032;2023-07-16T09:45:06;23.70;93.70
6102;DHT22;3081;50.584;7.032;2023-07-16T09:47:33;23.90;92.90
6102;DHT22;3081;50.584;7.032;2023-07-16T09:50:02;24.30;92.10
6102;DHT22;3081;50.584;7.032;2023-07-16T09:52:30;24.90;91.50
6102;DHT22;3081;50.584;7.032;2023-07-16T09:55:01;25.60;90.70
6102;DHT22;3081;50.584;7.032;2023-07-16T09:57:30;26.30;89.00
6102;DHT22;3081;50.584;7.032;2023-07-16T10:00:02;26.40;87.50
6102;DHT22;3081;50.584;7.032;2023-07-16T10:02:33;26.60;87.20
6102;DHT22;3081;50.584;7.032;2023-07-16T10:05:03;26.80;83.80
6102;DHT22;3081;50.584;7.032;2023-07-16T10:07:37;26.90;82.60
6102;DHT22;3081;50.584;7.032;2023-07-16T10:10:08;26.70;82.40
6102;DHT22;3081;50.584;7.032;2023-07-16T10:12:36;27.10;82.50
6102;DHT22;3081;50.584;7.032;2023-07-16T10:15:05;27.30;80.60
6102;DHT22;3081;50.584;7.032;2023-07-16T10:17:32;27.40;81.40
6102;DHT22;3081;50.584;7.032;2023-07-16T10:20:00;27.80;79.30
6102;DHT22;3081;50.584;7.032;2023-07-16T10:22:39;28.00;76.50
6102;DHT22;3081;50.584;7.032;2023-07-16T10:25:09;27.50;76.50
6102;DHT22;3081;50.584;7.032;2023-07-16T10:27:36;27.00;76.00
6102;DHT22;3081;50.584;7.032;2023-07-16T10:30:05;27.10;77.60
6102;DHT22;3081;50.584;7.032;2023-07-16T10:32:33;27.00;77.80
6102;DHT22;3081;50.584;7.032;2023-07-16T10:35:00;27.50;74.40
6102;DHT22;3081;50.584;7.032;2023-07-16T10:37:27;27.70;75.40
6102;DHT22;3081;50.584;7.032;2023-07-16T10:39:57;28.00;75.40
6102;DHT22;3081;50.584;7.032;2023-07-16T10:42:25;28.50;74.80
6102;DHT22;3081;50.584;7.032;2023-07-16T10:44:54;29.20;72.90
6102;DHT22;3081;50.584;7.032;2023-07-16T10:47:23;29.00;72.00
6102;DHT22;3081;50.584;7.032;2023-07-16T10:49:51;28.80;71.70
6102;DHT22;3081;50.584;7.032;2023-07-16T10:52:20;28.60;72.60
6102;DHT22;3081;50.584;7.032;2023-07-16T10:54:47;28.50;71.80
6102;DHT22;3081;50.584;7.032;2023-07-16T10:57:16;28.00;72.60
6102;DHT22;3081;50.584;7.032;2023-07-16T10:59:44;28.00;71.70
6102;DHT22;3081;50.584;7.032;2023-07-16T11:02:12;27.70;71.90
6102;DHT22;3081;50.584;7.032;2023-07-16T11:04:40;27.10;73.50
6102;DHT22;3081;50.584;7.032;2023-07-16T11:07:07;27.10;74.70
6102;DHT22;3081;50.584;7.032;2023-07-16T11:09:40;27.80;73.10
6102;DHT22;3081;50.584;7.032;2023-07-16T11:12:08;28.30;71.20
6102;DHT22;3081;50.584;7.032;2023-07-16T11:14:37;28.30;70.40
6102;DHT22;3081;50.584;7.032;2023-07-16T11:17:05;28.00;71.10
6102;DHT22;3081;50.584;7.032;2023-07-16T11:19:33;27.70;71.90
6102;DHT22;3081;50.584;7.032;2023-07-16T11:22:01;27.90;71.10
6102;DHT22;3081;50.584;7.032;2023-07-16T11:24:36;28.60;70.80
6102;DHT22;3081;50.584;7.032;2023-07-16T11:27:04;29.20;69.50
6102;DHT22;3081;50.584;7.032;2023-07-16T11:29:34;29.60;67.00
6102;DHT22;3081;50.584;7.032;2023-07-16T11:32:03;29.80;66.20
6102;DHT22;3081;50.584;7.032;2023-07-16T11:34:30;29.30;65.50
6102;DHT22;3081;50.584;7.032;2023-07-16T11:37:07;28.90;66.70
6102;DHT22;3081;50.584;7.032;2023-07-16T11:39:35;28.70;65.80
6102;DHT22;3081;50.584;7.032;2023-07-16T11:42:02;28.70;66.40
6102;DHT22;3081;50.584;7.032;2023-07-16T11:44:34;28.70;65.80
6102;DHT22;3081;50.584;7.032;2023-07-16T11:47:03;28.90;66.60
6102;DHT22;3081;50.584;7.032;2023-07-16T11:49:30;29.00;65.60
6102;DHT22;3081;50.584;7.032;2023-07-16T11:51:57;29.20;65.50
6102;DHT22;3081;50.584;7.032;2023-07-16T11:54:25;29.50;64.70
6102;DHT22;3081;50.584;7.032;2023-07-16T11:56:51;29.20;65.20
6102;DHT22;3081;50.584;7.032;2023-07-16T11:59:18;29.40;65.30
6102;DHT22;3081;50.584;7.032;2023-07-16T12:01:49;29.60;64.60
6102;DHT22;3081;50.584;7.032;2023-07-16T12:04:17;30.10;64.80
6102;DHT22;3081;50.584;7.032;2023-07-16T12:06:44;30.10;61.40
6102;DHT22;3081;50.584;7.032;2023-07-16T12:09:11;30.00;62.30
6102;DHT22;3081;50.584;7.032;2023-07-16T12:11:38;30.30;62.00
6102;DHT22;3081;50.584;7.032;2023-07-16T12:14:05;30.40;62.70
6102;DHT22;3081;50.584;7.032;2023-07-16T12:16:31;30.60;62.30
6102;DHT22;3081;50.584;7.032;2023-07-16T12:18:58;30.40;60.90
6102;DHT22;3081;50.584;7.032;2023-07-16T12:21:26;30.00;62.50
6102;DHT22;3081;50.584;7.032;2023-07-16T12:23:53;29.80;62.30
6102;DHT22;3081;50.584;7.032;2023-07-16T12:26:20;29.30;62.70
6102;DHT22;3081;50.584;7.032;2023-07-16T12:28:47;28.70;63.20
6102;DHT22;3081;50.584;7.032;2023-07-16T12:31:14;27.90;65.10
6102;DHT22;3081;50.584;7.032;2023-07-16T12:33:42;27.50;66.20
6102;DHT22;3081;50.584;7.032;2023-07-16T12:36:08;27.20;66.60
6102;DHT22;3081;50.584;7.032;2023-07-16T12:38:37;27.60;66.00
6102;DHT22;3081;50.584;7.032;2023-07-16T12:41:04;28.90;64.30
6102;DHT22;3081;50.584;7.032;2023-07-16T12:43:31;30.30;61.10
6102;DHT22;3081;50.584;7.032;2023-07-16T12:46:00;31.20;60.10
6102;DHT22;3081;50.584;7.032;2023-07-16T12:48:28;31.90;59.30
6102;DHT22;3081;50.584;7.032;2023-07-16T12:50:55;31.40;57.80
6102;DHT22;3081;50.584;7.032;2023-07-16T12:53:22;30.60;58.80
6102;DHT22;3081;50.584;7.032;2023-07-16T12:55:50;31.40;58.20
6102;DHT22;3081;50.584;7.032;2023-07-16T12:58:17;32.20;56.20
6102;DHT22;3081;50.584;7.032;2023-07-16T13:00:44;32.40;56.30
6102;DHT22;3081;50.584;7.032;2023-07-16T13:03:11;32.10;55.70
6102;DHT22;3081;50.584;7.032;2023-07-16T13:05:41;31.20;56.30
6102;DHT22;3081;50.584;7.032;2023-07-16T13:08:08;29.60;58.40
6102;DHT22;3081;50.584;7.032;2023-07-16T13:10:36;28.30;60.20
6102;DHT22;3081;50.584;7.032;2023-07-16T13:13:04;28.20;62.10
6102;DHT22;3081;50.584;7.032;2023-07-16T13:15:33;30.00;60.30
6102;DHT22;3081;50.584;7.032;2023-07-16T13:18:00;31.30;58.10
6102;DHT22;3081;50.584;7.032;2023-07-16T13:20:27;31.40;57.40
6102;DHT22;3081;50.584;7.032;2023-07-16T13:22:55;30.50;57.80
6102;DHT22;3081;50.584;7.032;2023-07-16T13:25:22;29.90;58.50
6102;DHT22;3081;50.584;7.032;2023-07-16T13:27:49;30.00;60.00
6102;DHT22;3081;50.584;7.032;2023-07-16T13:30:17;31.60;58.30
6102;DHT22;3081;50.584;7.032;2023-07-16T13:32:44;32.40;56.20
6102;DHT22;3081;50.584;7.032;2023-07-16T13:35:11;31.80;56.90
6102;DHT22;3081;50.584;7.032;2023-07-16T13:37:38;31.10;57.00
6102;DHT22;3081;50.584;7.032;2023-07-16T13:40:06;30.20;57.50
6102;DHT22;3081;50.584;7.032;2023-07-16T13:42:34;28.90;59.40
6102;DHT22;3081;50.584;7.032;2023-07-16T13:45:00;28.10;60.40
6102;DHT22;3081;50.584;7.032;2023-07-16T13:47:29;28.80;61.20
6102;DHT22;3081;50.584;7.032;2023-07-16T13:49:56;30.40;58.80
6102;DHT22;3081;50.584;7.032;2023-07-16T13:52:23;30.30;58.50
6102;DHT22;3081;50.584;7.032;2023-07-16T13:54:50;29.90;59.00
6102;DHT22;3081;50.584;7.032;2023-07-16T13:57:17;29.10;59.30
6102;DHT22;3081;50.584;7.032;2023-07-16T13:59:44;29.00;60.40
6102;DHT22;3081;50.584;7.032;2023-07-16T14:02:10;30.60;59.10
6102;DHT22;3081;50.584;7.032;2023-07-16T14:04:39;31.20;57.40
6102;DHT22;3081;50.584;7.032;2023-07-16T14:07:06;30.60;57.10
6102;DHT22;3081;50.584;7.032;2023-07-16T14:09:32;30.10;58.80
6102;DHT22;3081;50.584;7.032;2023-07-16T14:11:59;30.50;58.20
6102;DHT22;3081;50.584;7.032;2023-07-16T14:14:26;30.90;58.10
6102;DHT22;3081;50.584;7.032;2023-07-16T14:16:54;30.90;57.60
6102;DHT22;3081;50.584;7.032;2023-07-16T14:19:22;30.10;58.00
6102;DHT22;3081;50.584;7.032;2023-07-16T14:21:50;29.80;59.30
6102;DHT22;3081;50.584;7.032;2023-07-16T14:24:17;31.40;58.20
6102;DHT22;3081;50.584;7.032;2023-07-16T14:26:44;31.80;56.90
6102;DHT22;3081;50.584;7.032;2023-07-16T14:29:12;31.30;57.30
6102;DHT22;3081;50.584;7.032;2023-07-16T14:31:39;31.20;57.20
6102;DHT22;3081;50.584;7.032;2023-07-16T14:34:06;31.30;57.40
6102;DHT22;3081;50.584;7.032;2023-07-16T14:36:33;32.00;56.70
6102;DHT22;3081;50.584;7.032;2023-07-16T14:39:01;34.20;55.30
6102;DHT22;3081;50.584;7.032;2023-07-16T14:41:29;34.00;53.40
6102;DHT22;3081;50.584;7.032;2023-07-16T14:43:56;32.20;54.90
6102;DHT22;3081;50.584;7.032;2023-07-16T14:46:23;32.30;56.30
6102;DHT22;3081;50.584;7.032;2023-07-16T14:48:50;33.90;54.40
6102;DHT22;3081;50.584;7.032;2023-07-16T14:51:21;34.40;52.80
6102;DHT22;3081;50.584;7.032;2023-07-16T14:53:48;35.50;52.20
6102;DHT22;3081;50.584;7.032;2023-07-16T14:56:16;34.50;52.60
6102;DHT22;3081;50.584;7.032;2023-07-16T14:58:43;33.20;54.30
6102;DHT22;3081;50.584;7.032;2023-07-16T15:01:10;32.10;55.10
6102;DHT22;3081;50.584;7.032;2023-07-16T15:03:37;31.50;56.00
6102;DHT22;3081;50.584;7.032;2023-07-16T15:06:06;31.40;56.30
6102;DHT22;3081;50.584;7.032;2023-07-16T15:08:33;33.30;56.10
6102;DHT22;3081;50.584;7.032;2023-07-16T15:10:59;35.80;52.70
6102;DHT22;3081;50.584;7.032;2023-07-16T15:13:28;37.70;51.00
6102;DHT22;3081;50.584;7.032;2023-07-16T15:15:55;38.80;48.80
6102;DHT22;3081;50.584;7.032;2023-07-16T15:18:22;38.10;47.80
6102;DHT22;3081;50.584;7.032;2023-07-16T15:20:55;36.90;48.80
6102;DHT22;3081;50.584;7.032;2023-07-16T15:23:22;35.90;50.10
6102;DHT22;3081;50.584;7.032;2023-07-16T15:25:49;33.90;51.70
6102;DHT22;3081;50.584;7.032;2023-07-16T15:28:16;32.70;53.10
6102;DHT22;3081;50.584;7.032;2023-07-16T15:30:44;32.20;54.50
6102;DHT22;3081;50.584;7.032;2023-07-16T15:33:11;32.00;54.80
6102;DHT22;3081;50.584;7.032;2023-07-16T15:35:38;33.80;52.80
6102;DHT22;3081;50.584;7.032;2023-07-16T15:38:05;33.80;51.00
6102;DHT22;3081;50.584;7.032;2023-07-16T15:40:33;31.90;52.50
6102;DHT22;3081;50.584;7.032;2023-07-16T15:43:00;30.30;54.80
6102;DHT22;3081;50.584;7.032;2023-07-16T15:45:27;29.60;55.30
6102;DHT22;3081;50.584;7.032;2023-07-16T15:47:56;29.60;55.40
6102;DHT22;3081;50.584;7.032;2023-07-16T15:50:24;29.40;56.40
6102;DHT22;3081;50.584;7.032;2023-07-16T15:52:51;29.30;56.70
6102;DHT22;3081;50.584;7.032;2023-07-16T15:55:19;28.80;56.90
6102;DHT22;3081;50.584;7.032;2023-07-16T15:57:47;28.10;58.30
6102;DHT22;3081;50.584;7.032;2023-07-16T16:00:15;28.10;58.50
6102;DHT22;3081;50.584;7.032;2023-07-16T16:02:43;28.80;58.20
6102;DHT22;3081;50.584;7.032;2023-07-16T16:05:12;30.80;56.20
6102;DHT22;3081;50.584;7.032;2023-07-16T16:07:43;33.00;53.20